Terminal Aerodrome Forecast
Issued by NWS

Home | Current Version | Previous Version | Text Only | Print | Product List | Glossary On
Versions: 1 2 3 4 5 6 7 8 9 10 11 12 13 14 15 16 17 18 19 20 21 22 23 24 25 26 27 28 29 30 31 32
676
FTUS43 KGRB 242320
TAFAUW
TAF
KAUW 242320Z 2500/2524 20010KT P6SM BKN090
     FM250800 21005KT P6SM -SHRA SCT040 BKN100
     FM251200 30004KT P6SM VCSH SCT015 OVC040 PROB30 2512/2516 5SM
      -SHRA BR BKN015
     FM251600 32007KT P6SM VCSH BKN060
     FM252200 33005KT P6SM BKN200=

USA.gov is the U.S. government's official web portal to all federal, state and local government web resources and services.